Time;durP1;ratioP1;P1;durP2;ratioP2;P2;SDS_P1;SDS_P2;PMS_P1;PMS_P2;Temp;Humidity;BMP_temperature;BMP_pressure;BME280_temperature;BME280_humidity;BME280_pressure;Samples;Min_cycle;Max_cycle;Signal;HPM_P1;HPM_P2
2023/11/19 00:00:26;;;;;;;12.23;4.95;;;;;;;-5.51;70.71;100389.63;5035018;28;20044;-37
2023/11/19 00:02:53;;;;;;;15.90;5.63;;;;;;;-5.53;70.39;100374.34;5029270;28;20041;-38
2023/11/19 00:05:19;;;;;;;10.63;4.13;;;;;;;-5.53;70.80;100370.94;5028385;28;20041;-37
2023/11/19 00:07:45;;;;;;;11.70;5.63;;;;;;;-5.50;70.74;100371.94;5047637;28;20531;-39
2023/11/19 00:10:13;;;;;;;19.02;6.35;;;;;;;-5.43;70.30;100373.91;5032182;28;20052;-39
2023/11/19 00:12:44;;;;;;;10.75;4.30;;;;;;;-5.42;69.84;100368.03;5014327;28;20639;-38
2023/11/19 00:15:11;;;;;;;17.33;4.97;;;;;;;-5.45;70.09;100367.94;5033469;28;20582;-38
2023/11/19 00:17:40;;;;;;;12.07;5.65;;;;;;;-5.46;70.39;100370.41;5040797;28;20044;-39
2023/11/19 00:20:07;;;;;;;11.75;4.28;;;;;;;-5.67;70.37;100335.81;5039232;28;20071;-38
2023/11/19 00:22:33;;;;;;;14.95;5.18;;;;;;;-5.45;69.64;100360.34;5034868;28;20072;-38
2023/11/19 00:25:00;;;;;;;12.90;5.30;;;;;;;-5.44;70.05;100362.03;5034787;28;20076;-38
2023/11/19 00:27:26;;;;;;;13.10;5.47;;;;;;;-5.42;69.79;100367.19;5049910;28;20041;-38
2023/11/19 00:29:52;;;;;;;24.70;5.68;;;;;;;-5.42;69.66;100374.78;5047582;28;20524;-39
2023/11/19 00:32:18;;;;;;;14.63;4.50;;;;;;;-5.40;70.06;100365.59;5035651;28;20516;-38
2023/11/19 00:34:44;;;;;;;13.13;5.68;;;;;;;-5.41;69.81;100367.25;5031120;28;20043;-38
2023/11/19 00:37:10;;;;;;;13.52;5.25;;;;;;;-5.52;69.71;100350.75;5027444;28;20040;-38
2023/11/19 00:39:36;;;;;;;13.13;5.68;;;;;;;-5.64;69.59;100317.31;5030313;28;20045;-38
2023/11/19 00:42:02;;;;;;;15.52;4.85;;;;;;;-5.42;69.54;100347.78;5051922;28;20045;-37
2023/11/19 00:44:28;;;;;;;11.93;5.22;;;;;;;-5.39;69.25;100352.13;5029460;28;20033;-36
2023/11/19 00:46:54;;;;;;;14.48;5.93;;;;;;;-5.42;70.18;100349.44;5022640;28;20091;-38
2023/11/19 00:49:20;;;;;;;14.40;5.88;;;;;;;-5.40;69.63;100350.38;5049114;28;20521;-38
2023/11/19 00:51:46;;;;;;;14.52;6.10;;;;;;;-5.43;69.95;100350.25;5027852;28;20083;-38
2023/11/19 00:54:12;;;;;;;13.15;4.50;;;;;;;-5.47;69.77;100345.88;5034255;28;20136;-38
2023/11/19 00:56:38;;;;;;;12.38;5.75;;;;;;;-5.49;69.74;100350.00;5028309;28;20123;-39
2023/11/19 00:59:04;;;;;;;14.35;5.55;;;;;;;-5.53;70.28;100343.09;5032773;28;20071;-37
2023/11/19 01:01:30;;;;;;;14.63;5.45;;;;;;;-5.44;70.25;100346.00;5039335;28;20052;-38
2023/11/19 01:03:59;;;;;;;12.20;5.15;;;;;;;-5.41;70.22;100344.44;5026158;28;20056;-38
2023/11/19 01:06:31;;;;;;;24.88;5.72;;;;;;;-5.46;69.71;100334.94;5032596;28;20585;-38
2023/11/19 01:08:58;;;;;;;16.33;5.82;;;;;;;-5.43;69.97;100328.31;5029759;28;20144;-38
2023/11/19 01:11:24;;;;;;;16.35;4.95;;;;;;;-5.46;69.76;100328.19;5048300;28;20049;-38
2023/11/19 01:13:52;;;;;;;12.25;5.53;;;;;;;-5.45;70.19;100318.94;5014361;28;20041;-38
2023/11/19 01:16:19;;;;;;;18.58;5.20;;;;;;;-5.41;69.99;100314.03;5024355;28;20048;-38
2023/11/19 01:18:47;;;;;;;13.27;6.00;;;;;;;-5.44;70.25;100310.53;5044791;28;20127;-38
2023/11/19 01:21:14;;;;;;;16.30;5.38;;;;;;;-5.45;69.83;100298.66;5037603;28;20048;-38
2023/11/19 01:23:43;;;;;;;14.05;5.70;;;;;;;-5.37;69.85;100320.09;5033285;28;20041;-44
2023/11/19 01:26:10;;;;;;;15.30;5.78;;;;;;;-5.36;70.02;100312.56;5033243;28;20079;-38
2023/11/19 01:28:36;;;;;;;11.45;5.50;;;;;;;-5.39;70.36;100312.41;5035252;28;20040;-37
2023/11/19 01:31:03;;;;;;;19.35;6.38;;;;;;;-5.42;70.50;100314.84;5045347;28;20787;-39
2023/11/19 01:33:30;;;;;;;12.82;5.22;;;;;;;-5.49;70.57;100309.47;5034187;28;20041;-38
2023/11/19 01:35:58;;;;;;;14.05;5.97;;;;;;;-5.53;70.55;100307.63;5025978;28;20040;-38
2023/11/19 01:38:25;;;;;;;18.60;6.00;;;;;;;-5.71;70.93;100277.38;5033878;28;20044;-39
2023/11/19 01:40:56;;;;;;;15.15;6.10;;;;;;;-5.47;70.54;100296.06;5031912;28;20138;-38
2023/11/19 01:43:34;;;;;;;13.00;5.70;;;;;;;-5.49;71.09;100294.25;5032068;28;20509;-37
2023/11/19 01:46:02;;;;;;;12.00;5.50;;;;;;;-5.74;70.54;100265.44;5037718;28;20057;-38
2023/11/19 01:48:28;;;;;;;19.73;5.53;;;;;;;-5.50;71.33;100301.03;5047571;28;20276;-38
2023/11/19 01:50:55;;;;;;;15.63;5.72;;;;;;;-5.44;70.59;100305.47;5026990;28;20763;-38
2023/11/19 01:53:20;;;;;;;12.32;5.75;;;;;;;-5.48;71.08;100284.19;5031688;28;20044;-38
2023/11/19 01:55:47;;;;;;;12.60;5.57;;;;;;;-5.49;70.83;100261.34;5032939;28;20409;-38
2023/11/19 01:58:14;;;;;;;14.32;5.95;;;;;;;-5.16;70.88;100293.91;5048306;28;20056;-38
2023/11/19 02:00:41;;;;;;;15.25;5.63;;;;;;;-4.95;70.45;100303.97;5030238;28;20531;-39
2023/11/19 02:03:08;;;;;;;15.00;5.30;;;;;;;-5.00;70.02;100253.91;5026374;28;20041;-37
2023/11/19 02:05:34;;;;;;;12.30;5.70;;;;;;;-4.61;69.83;100295.09;5034043;28;20198;-39
2023/11/19 02:08:00;;;;;;;19.42;6.45;;;;;;;-4.45;69.71;100290.56;5042782;28;20040;-37
2023/11/19 02:10:25;;;;;;;12.93;5.53;;;;;;;-4.46;69.08;100271.13;5023033;28;20073;-38
2023/11/19 02:12:52;;;;;;;15.27;5.47;;;;;;;-4.33;68.84;100252.94;5047350;28;20539;-38
2023/11/19 02:15:24;;;;;;;15.05;5.97;;;;;;;-4.03;68.45;100291.19;5048276;28;20037;-38
2023/11/19 02:17:52;;;;;;;13.60;5.18;;;;;;;-3.98;68.23;100273.59;5049169;28;20045;-37
2023/11/19 02:20:20;;;;;;;16.52;6.05;;;;;;;-3.97;67.56;100245.69;5032476;28;20052;-37
2023/11/19 02:22:47;;;;;;;14.27;6.30;;;;;;;-3.65;67.49;100277.19;5033480;28;20132;-38
2023/11/19 02:25:23;;;;;;;16.15;6.28;;;;;;;-3.57;66.79;100287.63;5029650;28;20528;-38
2023/11/19 02:27:59;;;;;;;16.67;6.18;;;;;;;-3.88;66.69;100262.91;5030709;28;20124;-38
2023/11/19 02:30:29;;;;;;;17.15;6.88;;;;;;;-3.85;66.60;100293.47;5047655;28;20056;-39
2023/11/19 02:32:57;;;;;;;14.32;6.43;;;;;;;-3.91;66.71;100291.59;5049054;28;20037;-38
2023/11/19 02:35:24;;;;;;;18.02;7.60;;;;;;;-3.78;66.66;100287.78;5030935;28;20037;-38
2023/11/19 02:37:50;;;;;;;17.83;6.65;;;;;;;-3.74;65.97;100291.28;5033784;28;20049;-38
2023/11/19 02:40:17;;;;;;;17.42;6.20;;;;;;;-3.97;66.22;100235.53;5030882;28;20044;-38
2023/11/19 02:42:44;;;;;;;20.58;6.60;;;;;;;-3.56;65.61;100272.41;5031585;28;20049;-38
2023/11/19 02:45:14;;;;;;;16.80;5.78;;;;;;;-3.55;65.63;100278.34;5049719;28;20590;-38
2023/11/19 02:47:42;;;;;;;18.02;6.10;;;;;;;-3.47;65.24;100272.69;5031781;28;20033;-39
2023/11/19 02:50:24;;;;;;;;;;;;;;;-3.39;65.20;100278.00;5024726;28;20748;-39
2023/11/19 02:52:52;;;;;;;15.90;5.88;;;;;;;-3.57;64.99;100235.13;5036389;28;19924;-38
2023/11/19 02:55:19;;;;;;;26.50;6.30;;;;;;;-3.30;64.86;100267.28;5031041;28;20033;-38
2023/11/19 02:57:48;;;;;;;15.70;5.82;;;;;;;-3.60;64.49;100227.38;5030449;28;20057;-38
2023/11/19 03:00:18;;;;;;;15.98;5.32;;;;;;;-3.29;64.38;100261.34;5032256;28;20045;-37
2023/11/19 03:02:49;;;;;;;14.57;5.65;;;;;;;-3.23;64.40;100270.03;5047754;28;20044;-38
2023/11/19 03:05:16;;;;;;;18.52;6.40;;;;;;;-3.16;64.13;100266.00;5031865;28;20045;-39
2023/11/19 03:07:43;;;;;;;16.23;6.63;;;;;;;-3.12;64.01;100265.25;5038589;28;20107;-38
2023/11/19 03:10:15;;;;;;;19.17;6.43;;;;;;;-3.09;64.01;100262.84;5038029;28;20715;-39
2023/11/19 03:12:42;;;;;;;20.13;6.10;;;;;;;-3.06;63.68;100257.81;5046882;28;20761;-37
2023/11/19 03:15:09;;;;;;;23.65;7.40;;;;;;;-3.44;63.67;100188.91;5047472;28;20046;-38
2023/11/19 03:17:39;;;;;;;20.10;8.07;;;;;;;-2.98;63.65;100265.69;5031108;28;20045;-38
2023/11/19 03:20:09;;;;;;;21.77;8.07;;;;;;;-3.01;63.47;100264.78;5030564;28;20045;-37
2023/11/19 03:22:37;;;;;;;25.50;7.82;;;;;;;-3.09;63.56;100262.84;5032311;28;20086;-38
2023/11/19 03:25:08;;;;;;;21.20;7.85;;;;;;;-3.10;63.37;100261.97;5038724;28;20047;-39
2023/11/19 03:27:36;;;;;;;19.75;7.30;;;;;;;-3.24;63.13;100217.44;5031782;28;20458;-39
2023/11/19 03:30:04;;;;;;;20.20;7.57;;;;;;;-2.95;63.35;100261.53;5033469;28;20555;-38
2023/11/19 03:32:32;;;;;;;20.10;7.20;;;;;;;-2.90;63.01;100254.03;5035858;28;20143;-39
2023/11/19 03:34:58;;;;;;;20.98;6.93;;;;;;;-2.87;62.61;100262.59;5034179;28;20064;-38
2023/11/19 03:37:25;;;;;;;25.08;8.30;;;;;;;-2.92;62.73;100261.63;5034390;28;20037;-38
2023/11/19 03:39:51;;;;;;;20.30;7.75;;;;;;;-3.15;62.79;100227.03;5050387;28;20072;-38
2023/11/19 03:42:16;;;;;;;23.85;8.82;;;;;;;-3.06;62.89;100257.81;5032709;28;20041;-39
2023/11/19 03:44:42;;;;;;;20.88;7.10;;;;;;;-3.07;62.73;100246.78;5051509;28;20056;-38
2023/11/19 03:47:08;;;;;;;23.95;9.02;;;;;;;-3.07;62.99;100245.91;5053503;28;20064;-37
2023/11/19 03:49:34;;;;;;;27.33;8.73;;;;;;;-3.04;62.85;100244.34;5044415;28;20413;-39
2023/11/19 03:52:01;;;;;;;25.77;9.02;;;;;;;-3.02;62.84;100242.69;5049604;28;20107;-37
2023/11/19 03:54:27;;;;;;;24.27;8.70;;;;;;;-2.98;62.56;100232.63;5031958;28;20033;-38
2023/11/19 03:56:53;;;;;;;32.05;10.57;;;;;;;-3.21;62.52;100199.75;5035690;28;20041;-38
2023/11/19 03:59:20;;;;;;;36.15;10.38;;;;;;;-3.01;63.29;100239.34;5025123;28;20136;-39
2023/11/19 04:01:46;;;;;;;29.63;10.27;;;;;;;-2.99;62.87;100231.75;5027292;28;20045;-39
2023/11/19 04:04:12;;;;;;;23.90;8.40;;;;;;;-3.28;62.95;100202.06;5035027;28;20044;-39
2023/11/19 04:06:39;;;;;;;26.23;8.15;;;;;;;-3.11;62.71;100233.94;5030964;28;20040;-40
2023/11/19 04:09:05;;;;;;;17.17;7.50;;;;;;;-3.10;62.78;100231.44;5049887;28;20147;-38
2023/11/19 04:11:32;;;;;;;17.60;7.25;;;;;;;-3.13;62.64;100226.25;5037083;28;20033;-38
2023/11/19 04:13:58;;;;;;;19.10;7.05;;;;;;;-3.11;62.57;100213.59;5035050;28;20051;-40
2023/11/19 04:16:28;;;;;;;23.73;7.40;;;;;;;-3.07;62.57;100208.63;5035350;28;20041;-39
2023/11/19 04:18:54;;;;;;;23.73;7.70;;;;;;;-3.08;62.69;100204.38;5030530;28;20148;-39
2023/11/19 04:21:20;;;;;;;22.55;7.50;;;;;;;-3.06;62.67;100197.66;5050244;28;20486;-38
2023/11/19 04:23:46;;;;;;;19.88;7.20;;;;;;;-3.07;62.74;100190.84;5034022;28;20049;-38
2023/11/19 04:26:12;;;;;;;18.35;7.22;;;;;;;-3.07;62.66;100195.06;5031482;28;20032;-38
2023/11/19 04:28:38;;;;;;;23.23;8.20;;;;;;;-3.28;62.75;100167.34;5034065;28;20041;-38
2023/11/19 04:31:04;;;;;;;19.35;8.88;;;;;;;-3.16;62.63;100197.34;5051766;28;20397;-39
2023/11/19 04:33:31;;;;;;;26.00;10.13;;;;;;;-3.15;62.62;100194.84;5033180;28;20060;-38
2023/11/19 04:35:57;;;;;;;24.55;8.45;;;;;;;-3.11;62.37;100193.25;5034436;28;20123;-37
2023/11/19 04:38:23;;;;;;;20.42;8.43;;;;;;;-3.24;62.36;100168.28;5036555;28;20107;-38
2023/11/19 04:40:49;;;;;;;27.85;10.13;;;;;;;-3.03;62.21;100199.41;5032429;28;20770;-38
2023/11/19 04:43:15;;;;;;;20.98;8.60;;;;;;;-2.94;61.99;100198.81;5032691;28;20048;-38
2023/11/19 04:45:41;;;;;;;22.88;8.13;;;;;;;-2.88;61.49;100209.16;5035675;28;20041;-39
2023/11/19 04:48:09;;;;;;;31.60;10.70;;;;;;;-2.83;61.70;100205.94;5031901;28;20033;-39
2023/11/19 04:50:35;;;;;;;27.83;10.13;;;;;;;-2.98;61.92;100169.88;5034855;28;20045;-38
2023/11/19 04:53:01;;;;;;;27.67;10.10;;;;;;;-2.71;61.83;100211.34;5032763;28;20083;-38
2023/11/19 04:55:27;;;;;;;27.15;10.10;;;;;;;-2.67;61.89;100205.50;5037232;28;20033;-37
2023/11/19 04:57:54;;;;;;;28.58;9.95;;;;;;;-2.61;62.01;100210.75;5049055;28;20041;-39
2023/11/19 05:00:21;;;;;;;24.45;9.75;;;;;;;-2.56;62.05;100215.97;5033964;28;20531;-38
2023/11/19 05:02:47;;;;;;;28.40;10.23;;;;;;;-2.50;62.04;100228.00;5049239;28;20048;-39
2023/11/19 05:05:13;;;;;;;25.20;9.68;;;;;;;-2.44;61.95;100208.66;5047546;28;20041;-38
2023/11/19 05:07:39;;;;;;;23.85;9.02;;;;;;;-2.41;61.71;100213.84;5030134;28;20045;-38
2023/11/19 05:10:06;;;;;;;18.98;7.68;;;;;;;-2.45;61.56;100201.84;5031911;28;20109;-38
2023/11/19 05:12:32;;;;;;;24.30;8.52;;;;;;;-2.62;61.48;100206.47;5032356;28;20041;-38
2023/11/19 05:14:57;;;;;;;24.38;8.32;;;;;;;-2.89;61.48;100172.69;5033319;28;20041;-38
2023/11/19 05:17:23;;;;;;;20.63;7.97;;;;;;;-2.69;61.68;100213.94;5033376;28;20062;-37
2023/11/19 05:19:49;;;;;;;21.95;8.48;;;;;;;-2.71;61.91;100211.34;5030903;28;20056;-39
2023/11/19 05:22:15;;;;;;;26.63;9.15;;;;;;;-2.59;61.65;100208.25;5048970;28;20047;-40
2023/11/19 05:24:41;;;;;;;19.08;7.60;;;;;;;-2.56;61.74;100219.38;5031938;28;20037;-39
2023/11/19 05:27:07;;;;;;;24.63;7.47;;;;;;;-2.54;61.43;100216.88;5030718;28;20049;-38
2023/11/19 05:29:33;;;;;;;18.83;7.07;;;;;;;-2.47;61.15;100216.22;5029069;28;20501;-38
2023/11/19 05:32:00;;;;;;;16.83;6.13;;;;;;;-2.40;61.10;100215.53;5028481;28;20223;-39
2023/11/19 05:34:26;;;;;;;22.55;7.63;;;;;;;-2.36;60.66;100214.81;5050463;28;20132;-39
2023/11/19 05:36:51;;;;;;;13.57;5.63;;;;;;;-2.33;60.69;100224.22;5032667;28;20033;-38
2023/11/19 05:39:18;;;;;;;26.02;6.88;;;;;;;-2.32;60.53;100223.38;5033034;28;20044;-39
2023/11/19 05:41:44;;;;;;;20.42;6.28;;;;;;;-2.32;60.32;100218.31;5031616;28;20041;-39
2023/11/19 05:44:10;;;;;;;11.27;5.68;;;;;;;-2.26;60.00;100215.91;5032421;28;20056;-39
2023/11/19 05:46:40;;;;;;;12.82;5.40;;;;;;;-2.43;59.66;100176.44;5031577;28;20040;-39
2023/11/19 05:49:06;;;;;;;12.35;5.70;;;;;;;-2.19;59.50;100205.91;5030459;28;20045;-39
2023/11/19 05:51:32;;;;;;;11.60;5.70;;;;;;;-2.14;59.33;100226.38;5017448;28;20090;-39
2023/11/19 05:53:58;;;;;;;12.98;5.70;;;;;;;-2.13;59.27;100218.78;5030769;28;20049;-38
2023/11/19 05:56:24;;;;;;;13.48;5.40;;;;;;;-2.05;58.97;100213.03;5038690;28;20051;-39
2023/11/19 05:58:50;;;;;;;16.08;5.97;;;;;;;-2.05;58.53;100218.13;5031864;28;20049;-39
2023/11/19 06:01:17;;;;;;;12.75;5.68;;;;;;;-2.30;58.49;100184.41;5047346;28;20535;-38
2023/11/19 06:03:43;;;;;;;15.73;4.88;;;;;;;-2.09;58.49;100216.34;5032361;28;20033;-38
2023/11/19 06:06:09;;;;;;;7.40;4.00;;;;;;;-2.11;58.47;100213.75;5032848;28;20037;-38
2023/11/19 06:08:35;;;;;;;12.77;5.43;;;;;;;-2.17;58.28;100201.72;5032095;28;20041;-39
2023/11/19 06:11:04;;;;;;;11.25;5.15;;;;;;;-2.08;58.12;100208.72;5033133;28;20530;-38
2023/11/19 06:13:30;;;;;;;10.77;4.45;;;;;;;-2.05;57.96;100216.44;5048056;28;20082;-38
2023/11/19 06:15:56;;;;;;;14.45;4.88;;;;;;;-2.04;57.52;100207.13;5030314;28;20045;-38
2023/11/19 06:18:23;;;;;;;13.82;5.25;;;;;;;-1.98;57.80;100208.13;5029673;28;20056;-38
2023/11/19 06:20:49;;;;;;;12.20;4.70;;;;;;;-2.19;57.78;100188.06;5034832;28;20535;-38
2023/11/19 06:23:15;;;;;;;8.30;3.85;;;;;;;-2.37;56.70;100213.09;5032710;28;20049;-39
2023/11/19 06:25:41;;;;;;;9.93;3.92;;;;;;;-2.41;57.06;100207.88;5046562;28;20045;-38
2023/11/19 06:28:07;;;;;;;13.40;5.10;;;;;;;-2.39;56.75;100204.53;5034996;28;20547;-39
2023/11/19 06:30:33;;;;;;;14.15;4.40;;;;;;;-2.23;56.57;100210.88;5047913;28;20073;-39
2023/11/19 06:32:59;;;;;;;10.80;4.43;;;;;;;-2.14;56.62;100203.47;5049720;28;20484;-39
2023/11/19 06:35:25;;;;;;;9.98;4.35;;;;;;;-2.06;56.73;100206.22;5032284;28;20128;-40
2023/11/19 06:37:51;;;;;;;15.73;5.22;;;;;;;-1.98;56.58;100197.91;5030118;28;20041;-39
2023/11/19 06:40:17;;;;;;;12.70;4.15;;;;;;;-1.90;56.64;100191.34;5028639;28;20045;-38
2023/11/19 06:42:44;;;;;;;14.57;4.70;;;;;;;-1.87;56.44;100191.41;5031554;28;20099;-39
2023/11/19 06:45:10;;;;;;;15.05;4.25;;;;;;;-1.88;56.33;100189.66;5052209;28;20103;-39
2023/11/19 06:47:36;;;;;;;8.98;4.20;;;;;;;-2.11;55.95;100159.41;5019599;28;20232;-39
2023/11/19 06:50:05;;;;;;;12.00;5.20;;;;;;;-2.15;56.15;100189.03;5032096;28;20524;-39
2023/11/19 06:52:31;;;;;;;10.88;4.75;;;;;;;-2.07;56.19;100182.44;5032394;28;20095;-40
2023/11/19 06:54:57;;;;;;;16.00;5.75;;;;;;;-2.01;56.19;100185.13;5031593;28;20048;-40
2023/11/19 06:57:23;;;;;;;15.20;4.65;;;;;;;-1.91;55.95;100188.75;5031899;28;20037;-39
2023/11/19 06:59:49;;;;;;;9.77;4.20;;;;;;;-1.94;55.88;100188.69;5029911;28;20040;-39
2023/11/19 07:02:16;;;;;;;11.05;4.47;;;;;;;-1.92;55.98;100190.44;5029583;28;20041;-39
2023/11/19 07:04:42;;;;;;;11.27;4.18;;;;;;;-1.84;55.72;100196.59;5049276;28;20048;-38
2023/11/19 07:07:08;;;;;;;15.27;4.82;;;;;;;-2.03;55.69;100193.53;5028061;28;20108;-40
2023/11/19 07:09:34;;;;;;;10.68;4.80;;;;;;;-2.20;55.71;100186.34;5035059;28;20061;-38
2023/11/19 07:12:01;;;;;;;15.43;5.18;;;;;;;-2.17;55.90;100188.13;5035245;28;20180;-39
2023/11/19 07:14:28;;;;;;;11.65;5.47;;;;;;;-2.40;55.97;100158.66;5046941;28;20456;-38
2023/11/19 07:16:55;;;;;;;12.20;5.33;;;;;;;-2.22;56.16;100194.78;5023978;28;20102;-38
2023/11/19 07:19:21;;;;;;;9.90;4.85;;;;;;;-2.22;56.14;100192.25;5043640;28;20079;-38
2023/11/19 07:21:48;;;;;;;17.17;6.43;;;;;;;-2.23;56.09;100206.66;5034064;28;20045;-39
2023/11/19 07:24:13;;;;;;;13.43;4.93;;;;;;;-2.44;56.08;100192.50;5034229;28;20044;-38
2023/11/19 07:26:44;;;;;;;10.65;5.40;;;;;;;-2.43;56.13;100189.16;5035202;28;20041;-38
2023/11/19 07:29:10;;;;;;;14.63;5.38;;;;;;;-2.51;56.15;100193.19;5034846;28;20087;-38
2023/11/19 07:31:36;;;;;;;12.40;5.28;;;;;;;-2.35;56.36;100200.38;5037292;28;20053;-40
2023/11/19 07:34:03;;;;;;;16.13;5.78;;;;;;;-2.25;56.00;100197.28;5035022;28;20623;-39
2023/11/19 07:36:29;;;;;;;12.38;5.47;;;;;;;-2.20;56.36;100200.78;5035654;28;20098;-39
2023/11/19 07:38:57;;;;;;;14.10;7.10;;;;;;;-2.27;56.44;100188.72;5034672;28;20420;-38
2023/11/19 07:41:25;;;;;;;20.60;5.22;;;;;;;-2.14;56.58;100195.81;5034871;28;20056;-40
2023/11/19 07:43:52;;;;;;;11.88;5.15;;;;;;;-2.14;56.52;100181.41;5034841;28;20067;-39
2023/11/19 07:46:21;;;;;;;14.88;5.40;;;;;;;-2.05;56.41;100183.34;5037727;28;20041;-37
2023/11/19 07:48:47;;;;;;;11.88;4.95;;;;;;;-1.92;56.28;100194.66;5030299;28;20037;-39
2023/11/19 07:51:14;;;;;;;13.18;5.40;;;;;;;-1.94;56.00;100187.00;5051434;28;20133;-39
2023/11/19 07:53:40;;;;;;;11.40;5.13;;;;;;;-1.91;56.17;100188.75;5028083;28;20072;-38
2023/11/19 07:56:07;;;;;;;14.90;5.55;;;;;;;-1.81;56.32;100191.53;5037512;28;20075;-40
2023/11/19 07:58:33;;;;;;;11.55;4.88;;;;;;;-1.99;55.87;100155.44;5035083;28;20103;-38
2023/11/19 08:01:00;;;;;;;12.07;5.32;;;;;;;-1.77;55.77;100197.56;5034126;28;20049;-38
2023/11/19 08:03:26;;;;;;;8.27;4.47;;;;;;;-1.98;54.92;100190.28;5035099;28;20041;-39
2023/11/19 08:05:55;;;;;;;10.20;5.63;;;;;;;-2.26;54.95;100181.13;5034432;28;20045;-39
2023/11/19 08:08:21;;;;;;;;;;;;;;;-2.14;55.03;100178.00;5050825;28;20033;-37
2023/11/19 08:10:47;;;;;;;12.45;4.85;;;;;;;-2.32;54.84;100147.00;5036675;28;19940;-38
2023/11/19 08:13:13;;;;;;;9.98;3.95;;;;;;;-2.04;54.71;100171.47;5048437;28;20061;-39
2023/11/19 08:15:40;;;;;;;13.70;4.60;;;;;;;-1.93;54.38;100175.97;5048657;28;20076;-39
2023/11/19 08:18:07;;;;;;;12.45;4.85;;;;;;;-2.04;54.18;100133.25;5056808;28;20578;-38
2023/11/19 08:20:33;;;;;;;11.20;5.47;;;;;;;-1.75;54.38;100167.88;5050837;28;20118;-47
2023/11/19 08:22:59;;;;;;;13.48;4.72;;;;;;;-1.83;54.07;100132.03;5036067;28;20141;-39
2023/11/19 08:25:25;;;;;;;12.38;4.28;;;;;;;-1.61;54.13;100169.03;5048072;28;20127;-38
2023/11/19 08:27:51;;;;;;;11.98;5.47;;;;;;;-1.55;53.85;100159.00;5047579;28;20049;-38
2023/11/19 08:30:17;;;;;;;10.05;4.72;;;;;;;-1.44;53.68;100159.22;5051014;28;20433;-38
2023/11/19 08:32:43;;;;;;;12.55;4.68;;;;;;;-1.45;53.78;100158.34;5050236;28;20132;-39
2023/11/19 08:35:08;;;;;;;15.18;5.35;;;;;;;-1.55;53.78;100155.56;5034634;28;20107;-40
2023/11/19 08:37:36;;;;;;;14.27;5.55;;;;;;;-1.45;53.47;100158.34;5048656;28;20051;-39
2023/11/19 08:40:04;;;;;;;12.05;3.90;;;;;;;-1.34;53.66;100159.44;5052597;28;20049;-38
2023/11/19 08:42:30;;;;;;;13.55;4.47;;;;;;;-1.22;53.48;100157.97;5049163;28;20094;-38
2023/11/19 08:44:56;;;;;;;10.07;5.18;;;;;;;-1.44;53.25;100109.09;5049320;28;20048;-39
2023/11/19 08:47:22;;;;;;;12.95;5.38;;;;;;;-1.16;53.18;100156.44;5042669;28;20048;-39
2023/11/19 08:49:52;;;;;;;11.90;6.03;;;;;;;-1.15;52.90;100157.28;5048819;28;20052;-38
2023/11/19 08:52:18;;;;;;;;;;;;;;;-1.26;53.02;100130.69;5051035;28;20060;-37
2023/11/19 08:54:44;;;;;;;13.70;5.28;;;;;;;-1.48;52.87;100150.66;5056783;28;20356;-39
2023/11/19 08:57:10;;;;;;;11.05;4.47;;;;;;;-1.48;52.85;100160.00;5032036;28;20155;-38
2023/11/19 08:59:37;;;;;;;13.52;5.32;;;;;;;-1.64;52.93;100156.25;5048299;28;20209;-41
2023/11/19 09:02:05;;;;;;;13.38;5.18;;;;;;;-1.91;52.97;100131.00;5014187;28;20036;-40
2023/11/19 09:04:31;;;;;;;10.40;5.45;;;;;;;-1.95;53.53;100156.38;5051694;28;20611;-38
2023/11/19 09:07:00;;;;;;;13.73;4.65;;;;;;;-2.06;53.89;100161.22;5039619;28;20396;-38
2023/11/19 09:09:26;;;;;;;11.85;5.65;;;;;;;-1.93;53.71;100163.22;5037498;28;20084;-39
2023/11/19 09:11:52;;;;;;;13.27;5.97;;;;;;;-1.97;53.74;100160.56;5050405;28;20033;-38
2023/11/19 09:14:18;;;;;;;12.23;5.47;;;;;;;-2.00;53.76;100158.84;5052793;28;20084;-40
2023/11/19 09:16:44;;;;;;;13.75;5.63;;;;;;;-1.99;53.77;100157.97;5051383;28;20467;-40
2023/11/19 09:19:10;;;;;;;15.88;5.60;;;;;;;-2.07;53.96;100154.41;5031816;28;20542;-39
2023/11/19 09:21:38;;;;;;;13.27;5.85;;;;;;;-2.13;54.45;100127.09;5041284;28;20033;-39
2023/11/19 09:24:05;;;;;;;11.93;5.30;;;;;;;-2.14;53.88;100155.06;5027358;28;20052;-37
2023/11/19 09:26:31;;;;;;;15.52;6.07;;;;;;;-2.44;54.07;100108.50;5049340;28;20215;-39
2023/11/19 09:28:57;;;;;;;14.93;6.13;;;;;;;-2.26;54.25;100139.53;5043104;28;20369;-39
2023/11/19 09:31:23;;;;;;;14.65;5.60;;;;;;;-2.19;54.23;100146.47;5033424;28;20049;-38
2023/11/19 09:33:49;;;;;;;14.32;7.05;;;;;;;-2.36;54.15;100133.34;5044398;28;20051;-38
2023/11/19 09:36:16;;;;;;;16.70;6.22;;;;;;;-2.41;54.53;100124.75;5045803;28;20052;-39
2023/11/19 09:38:46;;;;;;;11.70;5.80;;;;;;;-2.29;54.48;100116.50;5031873;28;20049;-39
2023/11/19 09:41:13;;;;;;;16.00;5.93;;;;;;;-2.09;54.35;100125.47;5046806;28;20043;-39
2023/11/19 09:43:40;;;;;;;18.23;6.18;;;;;;;-2.13;54.00;100083.81;5033393;28;20068;-39
2023/11/19 09:46:09;;;;;;;11.85;5.72;;;;;;;-1.85;54.14;100115.88;5045477;28;20041;-38
2023/11/19 09:48:36;;;;;;;12.48;5.43;;;;;;;-2.04;54.08;100090.78;5055303;28;20079;-38
2023/11/19 09:51:04;;;;;;;15.73;6.75;;;;;;;-2.14;54.32;100101.59;5050967;28;20045;-39
2023/11/19 09:53:31;;;;;;;13.98;6.47;;;;;;;-2.04;54.18;100098.44;5051268;28;20131;-40
2023/11/19 09:56:00;;;;;;;12.65;6.25;;;;;;;-1.95;53.78;100095.25;5070239;28;20059;-38
2023/11/19 09:58:28;;;;;;;17.37;6.50;;;;;;;-1.79;53.67;100084.56;5049745;28;20036;-39
2023/11/19 10:00:54;;;;;;;12.40;6.32;;;;;;;-1.64;53.59;100086.56;5052611;28;20478;-38
2023/11/19 10:03:22;;;;;;;13.40;6.40;;;;;;;-1.93;53.24;100023.09;5049688;28;20576;-39
2023/11/19 10:05:48;;;;;;;16.75;6.57;;;;;;;-1.52;53.15;100086.81;5044819;28;20114;-40
2023/11/19 10:08:14;;;;;;;18.35;7.03;;;;;;;-1.44;53.01;100096.34;5042747;28;20036;-39
2023/11/19 10:10:39;;;;;;;15.05;6.88;;;;;;;-1.59;53.05;100050.16;5041502;28;20572;-39
2023/11/19 10:13:08;;;;;;;15.27;6.93;;;;;;;-1.34;52.88;100085.50;5032010;28;20076;-40
2023/11/19 10:15:36;;;;;;;15.25;6.25;;;;;;;-1.32;52.89;100086.41;5041526;28;20032;-38
2023/11/19 10:18:06;;;;;;;21.38;6.32;;;;;;;-1.32;53.13;100076.19;5032428;28;20727;-38
2023/11/19 10:20:41;;;;;;;16.27;6.93;;;;;;;-1.52;53.16;100046.03;5048555;28;20083;-39
2023/11/19 10:23:07;;;;;;;18.23;6.95;;;;;;;-1.29;52.76;100071.13;5041115;28;20053;-39
2023/11/19 10:25:33;;;;;;;14.13;6.68;;;;;;;-1.32;52.79;100071.09;5053142;28;20510;-39
2023/11/19 10:28:00;;;;;;;17.70;7.38;;;;;;;-1.40;53.37;100059.88;5040361;28;20120;-38
2023/11/19 10:30:30;;;;;;;16.77;7.97;;;;;;;-1.58;54.04;100058.66;5045802;28;20158;-39
2023/11/19 10:33:17;;;;;;;18.45;7.80;;;;;;;-1.63;54.68;100057.69;5035129;28;20037;-39
2023/11/19 10:35:57;;;;;;;17.10;7.32;;;;;;;-1.60;54.74;100063.72;5052577;28;20044;-38
2023/11/19 10:38:26;;;;;;;18.25;8.13;;;;;;;-2.03;55.22;100040.69;5057888;28;20436;-40
2023/11/19 10:40:53;;;;;;;16.02;8.10;;;;;;;-1.91;56.06;100074.09;5073777;28;20037;-39
2023/11/19 10:43:19;;;;;;;19.00;8.10;;;;;;;-1.92;55.82;100068.13;5039819;28;20088;-40
2023/11/19 10:45:45;;;;;;;21.85;8.05;;;;;;;-1.99;56.11;100070.53;5043447;28;20044;-39
2023/11/19 10:48:12;;;;;;;25.20;8.73;;;;;;;-2.34;56.39;100034.94;5036023;28;20049;-39
2023/11/19 10:50:40;;;;;;;18.75;7.07;;;;;;;-2.19;56.86;100072.63;5037875;28;20033;-39
2023/11/19 10:53:08;;;;;;;18.33;8.38;;;;;;;-2.32;56.92;100080.81;5019712;28;20091;-40
2023/11/19 10:55:36;;;;;;;18.40;7.95;;;;;;;-2.60;57.31;100041.97;5044660;28;20037;-40
2023/11/19 10:58:03;;;;;;;18.98;7.93;;;;;;;-2.48;57.87;100077.03;5054849;28;20405;-40
2023/11/19 11:00:31;;;;;;;23.05;7.38;;;;;;;-2.65;57.93;100040.13;5055808;28;20033;-39
2023/11/19 11:03:02;;;;;;;13.50;6.85;;;;;;;-2.48;57.95;100078.72;5048398;28;20037;-39
2023/11/19 11:05:30;;;;;;;17.63;7.88;;;;;;;-2.67;58.39;100064.72;5042223;28;20045;-39
2023/11/19 11:07:56;;;;;;;17.48;7.72;;;;;;;-2.72;58.32;100074.75;5055317;28;20700;-39
2023/11/19 11:10:26;;;;;;;17.55;7.80;;;;;;;-2.77;58.66;100067.81;5052632;28;20066;-39
2023/11/19 11:12:58;;;;;;;14.15;6.78;;;;;;;-2.71;59.02;100070.50;5051204;28;20517;-38
2023/11/19 11:15:28;;;;;;;18.77;7.47;;;;;;;-2.67;58.70;100075.72;5051644;28;20098;-39